sensor_id;sensor_type;location;lat;lon;timestamp;pressure;altitude;pressure_sealevel;temperature;humidity
64388;BME280;50709;52.648;4.764;2023-12-22T00:02:22;100226.47;;;15.30;60.01
64388;BME280;50709;52.648;4.764;2023-12-22T00:04:51;100237.28;;;15.19;60.72
64388;BME280;50709;52.648;4.764;2023-12-22T00:07:16;100253.25;;;15.46;59.69
64388;BME280;50709;52.648;4.764;2023-12-22T00:09:42;100248.31;;;15.34;60.41
64388;BME280;50709;52.648;4.764;2023-12-22T00:12:07;100234.28;;;15.00;61.04
64388;BME280;50709;52.648;4.764;2023-12-22T00:14:32;100222.84;;;15.34;60.24
64388;BME280;50709;52.648;4.764;2023-12-22T00:16:58;100218.78;;;15.24;60.08
64388;BME280;50709;52.648;4.764;2023-12-22T00:19:23;100221.47;;;15.21;60.88
64388;BME280;50709;52.648;4.764;2023-12-22T00:21:49;100204.13;;;15.13;60.79
64388;BME280;50709;52.648;4.764;2023-12-22T00:24:14;100208.22;;;14.91;61.03
64388;BME280;50709;52.648;4.764;2023-12-22T00:26:39;100235.41;;;14.90;61.52
64388;BME280;50709;52.648;4.764;2023-12-22T00:29:05;100215.06;;;14.63;59.19
64388;BME280;50709;52.648;4.764;2023-12-22T00:31:30;100245.50;;;15.07;61.01
64388;BME280;50709;52.648;4.764;2023-12-22T00:33:55;100221.00;;;15.05;61.52
64388;BME280;50709;52.648;4.764;2023-12-22T00:36:21;100236.25;;;14.92;59.67
64388;BME280;50709;52.648;4.764;2023-12-22T00:38:49;100229.97;;;14.97;60.90
64388;BME280;50709;52.648;4.764;2023-12-22T00:41:15;100218.91;;;14.85;60.59
64388;BME280;50709;52.648;4.764;2023-12-22T00:43:40;100230.59;;;15.07;60.96
64388;BME280;50709;52.648;4.764;2023-12-22T00:46:06;100234.59;;;14.88;57.90
64388;BME280;50709;52.648;4.764;2023-12-22T00:48:31;100230.75;;;14.67;61.44
64388;BME280;50709;52.648;4.764;2023-12-22T00:50:56;100229.97;;;14.97;61.28
64388;BME280;50709;52.648;4.764;2023-12-22T00:53:22;100230.28;;;14.85;60.42
64388;BME280;50709;52.648;4.764;2023-12-22T00:55:47;100213.16;;;15.03;60.80
64388;BME280;50709;52.648;4.764;2023-12-22T00:58:13;100222.69;;;15.07;60.77
64388;BME280;50709;52.648;4.764;2023-12-22T01:00:38;100217.66;;;15.00;60.41
64388;BME280;50709;52.648;4.764;2023-12-22T01:03:03;100230.31;;;14.84;59.81
64388;BME280;50709;52.648;4.764;2023-12-22T01:05:29;100206.31;;;14.97;61.05
64388;BME280;50709;52.648;4.764;2023-12-22T01:07:54;100227.28;;;14.99;60.84
64388;BME280;50709;52.648;4.764;2023-12-22T01:10:19;100236.97;;;14.99;61.23
64388;BME280;50709;52.648;4.764;2023-12-22T01:12:45;100199.13;;;14.70;62.07
64388;BME280;50709;52.648;4.764;2023-12-22T01:15:10;100220.94;;;14.73;59.81
64388;BME280;50709;52.648;4.764;2023-12-22T01:17:36;100207.34;;;14.92;61.63
64388;BME280;50709;52.648;4.764;2023-12-22T01:20:02;100183.94;;;14.45;60.35
64388;BME280;50709;52.648;4.764;2023-12-22T01:22:28;100227.47;;;14.93;60.97
64388;BME280;50709;52.648;4.764;2023-12-22T01:24:53;100218.47;;;14.67;59.96
64388;BME280;50709;52.648;4.764;2023-12-22T01:27:18;100235.06;;;14.69;61.66
64388;BME280;50709;52.648;4.764;2023-12-22T01:29:45;100214.59;;;14.44;61.50
64388;BME280;50709;52.648;4.764;2023-12-22T01:32:10;100228.84;;;14.34;62.97
64388;BME280;50709;52.648;4.764;2023-12-22T01:34:35;100218.03;;;14.46;62.39
64388;BME280;50709;52.648;4.764;2023-12-22T01:37:01;100234.94;;;14.36;61.99
64388;BME280;50709;52.648;4.764;2023-12-22T01:39:26;100217.31;;;14.40;62.34
64388;BME280;50709;52.648;4.764;2023-12-22T01:41:52;100225.03;;;14.47;61.73
64388;BME280;50709;52.648;4.764;2023-12-22T01:44:17;100211.44;;;14.30;61.11
64388;BME280;50709;52.648;4.764;2023-12-22T01:46:42;100212.38;;;14.65;61.08
64388;BME280;50709;52.648;4.764;2023-12-22T01:49:08;100233.28;;;14.71;60.64
64388;BME280;50709;52.648;4.764;2023-12-22T01:51:36;100243.91;;;14.65;61.84
64388;BME280;50709;52.648;4.764;2023-12-22T01:54:05;100261.47;;;14.65;61.04
64388;BME280;50709;52.648;4.764;2023-12-22T01:56:31;100278.94;;;14.67;62.21
64388;BME280;50709;52.648;4.764;2023-12-22T01:58:59;100293.28;;;14.88;62.00
64388;BME280;50709;52.648;4.764;2023-12-22T02:01:26;100271.69;;;14.77;62.17
64388;BME280;50709;52.648;4.764;2023-12-22T02:03:53;100280.09;;;14.91;61.89
64388;BME280;50709;52.648;4.764;2023-12-22T02:06:19;100292.66;;;14.78;62.12
64388;BME280;50709;52.648;4.764;2023-12-22T02:08:48;100269.22;;;14.69;60.40
64388;BME280;50709;52.648;4.764;2023-12-22T02:11:14;100280.59;;;14.71;62.30
64388;BME280;50709;52.648;4.764;2023-12-22T02:13:40;100269.00;;;14.78;60.81
64388;BME280;50709;52.648;4.764;2023-12-22T02:16:13;100280.38;;;14.80;61.97
64388;BME280;50709;52.648;4.764;2023-12-22T02:18:43;100272.69;;;14.71;62.17
64388;BME280;50709;52.648;4.764;2023-12-22T02:21:11;100280.59;;;14.70;61.87
64388;BME280;50709;52.648;4.764;2023-12-22T02:23:36;100290.16;;;14.74;62.01
64388;BME280;50709;52.648;4.764;2023-12-22T02:26:09;100263.88;;;14.74;62.58
64388;BME280;50709;52.648;4.764;2023-12-22T02:28:39;100264.81;;;14.71;62.21
64388;BME280;50709;52.648;4.764;2023-12-22T02:31:17;100268.03;;;14.83;61.94
64388;BME280;50709;52.648;4.764;2023-12-22T02:33:44;100264.94;;;14.65;62.10
64388;BME280;50709;52.648;4.764;2023-12-22T02:36:10;100336.47;;;14.39;62.38
64388;BME280;50709;52.648;4.764;2023-12-22T02:38:38;100313.13;;;14.23;63.22
64388;BME280;50709;52.648;4.764;2023-12-22T02:41:04;100329.09;;;14.55;63.17
64388;BME280;50709;52.648;4.764;2023-12-22T02:43:31;100325.69;;;14.51;62.37
64388;BME280;50709;52.648;4.764;2023-12-22T02:45:56;100304.72;;;14.48;63.02
64388;BME280;50709;52.648;4.764;2023-12-22T02:48:22;100302.25;;;14.42;62.52
64388;BME280;50709;52.648;4.764;2023-12-22T02:50:47;100296.72;;;14.13;60.78
64388;BME280;50709;52.648;4.764;2023-12-22T02:53:12;100283.13;;;14.35;63.17
64388;BME280;50709;52.648;4.764;2023-12-22T02:55:38;100285.59;;;14.41;62.95
64388;BME280;50709;52.648;4.764;2023-12-22T02:58:03;100273.94;;;14.14;63.14
64388;BME280;50709;52.648;4.764;2023-12-22T03:00:29;100285.84;;;14.30;63.16
64388;BME280;50709;52.648;4.764;2023-12-22T03:02:54;100259.69;;;14.26;62.76
64388;BME280;50709;52.648;4.764;2023-12-22T03:05:19;100274.34;;;14.36;62.25
64388;BME280;50709;52.648;4.764;2023-12-22T03:07:45;100299.09;;;13.84;61.86
64388;BME280;50709;52.648;4.764;2023-12-22T03:10:10;100294.13;;;14.12;63.60
64388;BME280;50709;52.648;4.764;2023-12-22T03:12:35;100288.66;;;14.23;62.84
64388;BME280;50709;52.648;4.764;2023-12-22T03:15:01;100287.03;;;14.17;62.55
64388;BME280;50709;52.648;4.764;2023-12-22T03:17:26;100282.56;;;14.21;62.96
64388;BME280;50709;52.648;4.764;2023-12-22T03:19:51;100259.53;;;13.93;62.67
64388;BME280;50709;52.648;4.764;2023-12-22T03:22:17;100282.38;;;13.88;62.47
64388;BME280;50709;52.648;4.764;2023-12-22T03:24:43;100290.53;;;14.16;63.01
64388;BME280;50709;52.648;4.764;2023-12-22T03:27:09;100288.63;;;13.82;62.44
64388;BME280;50709;52.648;4.764;2023-12-22T03:29:34;100310.47;;;13.83;64.16
64388;BME280;50709;52.648;4.764;2023-12-22T03:32:00;100282.16;;;13.99;63.44
64388;BME280;50709;52.648;4.764;2023-12-22T03:34:25;100292.50;;;14.06;63.31
64388;BME280;50709;52.648;4.764;2023-12-22T03:36:50;100290.66;;;14.10;63.07
64388;BME280;50709;52.648;4.764;2023-12-22T03:39:16;100301.81;;;14.20;63.59
64388;BME280;50709;52.648;4.764;2023-12-22T03:41:41;100285.41;;;14.10;63.27
64388;BME280;50709;52.648;4.764;2023-12-22T03:44:07;100332.50;;;14.19;63.34
64388;BME280;50709;52.648;4.764;2023-12-22T03:46:32;100306.50;;;14.07;63.83
64388;BME280;50709;52.648;4.764;2023-12-22T03:48:58;100310.47;;;14.25;63.39
64388;BME280;50709;52.648;4.764;2023-12-22T03:51:23;100305.38;;;14.19;63.22
64388;BME280;50709;52.648;4.764;2023-12-22T03:53:49;100287.03;;;14.16;63.09
64388;BME280;50709;52.648;4.764;2023-12-22T03:56:14;100285.59;;;14.41;63.09
64388;BME280;50709;52.648;4.764;2023-12-22T03:58:39;100278.16;;;14.23;62.62
64388;BME280;50709;52.648;4.764;2023-12-22T04:01:05;100274.13;;;14.06;63.99
64388;BME280;50709;52.648;4.764;2023-12-22T04:03:33;100291.16;;;14.27;62.77
64388;BME280;50709;52.648;4.764;2023-12-22T04:06:01;100278.34;;;14.13;63.14
64388;BME280;50709;52.648;4.764;2023-12-22T04:08:27;100272.31;;;14.08;63.19
64388;BME280;50709;52.648;4.764;2023-12-22T04:10:52;100284.59;;;14.08;61.89
64388;BME280;50709;52.648;4.764;2023-12-22T04:13:17;100273.50;;;13.93;63.36
64388;BME280;50709;52.648;4.764;2023-12-22T04:15:43;100262.25;;;13.88;64.00
64388;BME280;50709;52.648;4.764;2023-12-22T04:18:09;100281.84;;;14.12;63.61
64388;BME280;50709;52.648;4.764;2023-12-22T04:20:34;100278.53;;;14.04;63.10
64388;BME280;50709;52.648;4.764;2023-12-22T04:23:00;100277.13;;;13.88;62.13
64388;BME280;50709;52.648;4.764;2023-12-22T04:25:25;100280.53;;;13.93;62.44
64388;BME280;50709;52.648;4.764;2023-12-22T04:27:51;100269.97;;;13.96;62.47
64388;BME280;50709;52.648;4.764;2023-12-22T04:30:17;100282.34;;;13.89;63.17
64388;BME280;50709;52.648;4.764;2023-12-22T04:32:42;100275.06;;;14.04;63.02
64388;BME280;50709;52.648;4.764;2023-12-22T04:35:08;100269.78;;;14.05;62.38
64388;BME280;50709;52.648;4.764;2023-12-22T04:37:33;100256.19;;;13.85;63.42
64388;BME280;50709;52.648;4.764;2023-12-22T04:39:59;100279.31;;;14.09;62.92
64388;BME280;50709;52.648;4.764;2023-12-22T04:42:25;100255.25;;;13.89;63.38
64388;BME280;50709;52.648;4.764;2023-12-22T04:44:51;100253.41;;;13.92;62.89
64388;BME280;50709;52.648;4.764;2023-12-22T04:47:16;100257.81;;;13.92;63.21
64388;BME280;50709;52.648;4.764;2023-12-22T04:49:42;100244.75;;;13.89;62.15
64388;BME280;50709;52.648;4.764;2023-12-22T04:52:07;100258.84;;;13.83;63.14
64388;BME280;50709;52.648;4.764;2023-12-22T04:54:32;100259.72;;;13.84;63.28
64388;BME280;50709;52.648;4.764;2023-12-22T04:56:58;100253.47;;;13.89;63.28
64388;BME280;50709;52.648;4.764;2023-12-22T04:59:23;100245.50;;;13.94;62.89
64388;BME280;50709;52.648;4.764;2023-12-22T05:01:48;100262.16;;;13.93;62.17
64388;BME280;50709;52.648;4.764;2023-12-22T05:04:14;100265.06;;;13.79;63.30
64388;BME280;50709;52.648;4.764;2023-12-22T05:06:39;100278.13;;;13.82;62.76
64388;BME280;50709;52.648;4.764;2023-12-22T05:09:05;100252.59;;;13.45;63.72
64388;BME280;50709;52.648;4.764;2023-12-22T05:11:30;100230.19;;;13.72;63.78
64388;BME280;50709;52.648;4.764;2023-12-22T05:13:55;100233.06;;;13.60;62.58
64388;BME280;50709;52.648;4.764;2023-12-22T05:16:21;100278.88;;;13.87;63.54
64388;BME280;50709;52.648;4.764;2023-12-22T05:18:46;100248.34;;;13.83;64.04
64388;BME280;50709;52.648;4.764;2023-12-22T05:21:12;100240.44;;;13.86;63.78
64388;BME280;50709;52.648;4.764;2023-12-22T05:23:39;100204.91;;;13.68;63.79
64388;BME280;50709;52.648;4.764;2023-12-22T05:26:04;100226.03;;;13.62;62.97
64388;BME280;50709;52.648;4.764;2023-12-22T05:28:30;100257.88;;;13.89;64.28
64388;BME280;50709;52.648;4.764;2023-12-22T05:30:55;100252.28;;;14.04;63.63
64388;BME280;50709;52.648;4.764;2023-12-22T05:33:20;100247.16;;;14.39;62.11
64388;BME280;50709;52.648;4.764;2023-12-22T05:35:46;100246.28;;;14.76;61.65
64388;BME280;50709;52.648;4.764;2023-12-22T05:38:11;100248.66;;;14.87;61.17
64388;BME280;50709;52.648;4.764;2023-12-22T05:40:36;100245.03;;;14.91;59.72
64388;BME280;50709;52.648;4.764;2023-12-22T05:43:02;100245.09;;;15.22;59.85
64388;BME280;50709;52.648;4.764;2023-12-22T05:45:27;100257.59;;;15.47;59.55
64388;BME280;50709;52.648;4.764;2023-12-22T05:47:53;100244.06;;;15.61;57.66
64388;BME280;50709;52.648;4.764;2023-12-22T05:50:19;100257.16;;;15.95;58.22
64388;BME280;50709;52.648;4.764;2023-12-22T05:52:44;100254.94;;;16.11;57.79
64388;BME280;50709;52.648;4.764;2023-12-22T05:55:10;100231.50;;;16.30;56.47
64388;BME280;50709;52.648;4.764;2023-12-22T05:57:36;100227.25;;;16.25;56.27
64388;BME280;50709;52.648;4.764;2023-12-22T06:00:02;100233.50;;;16.51;56.45
64388;BME280;50709;52.648;4.764;2023-12-22T06:02:30;100242.03;;;16.59;56.02
64388;BME280;50709;52.648;4.764;2023-12-22T06:04:55;100227.34;;;16.50;55.77
64388;BME280;50709;52.648;4.764;2023-12-22T06:07:20;100234.75;;;16.94;55.19
64388;BME280;50709;52.648;4.764;2023-12-22T06:09:46;100242.00;;;16.86;55.01
64388;BME280;50709;52.648;4.764;2023-12-22T06:12:11;100250.84;;;16.85;55.07
64388;BME280;50709;52.648;4.764;2023-12-22T06:14:36;100266.06;;;16.76;54.98
64388;BME280;50709;52.648;4.764;2023-12-22T06:17:02;100255.84;;;16.94;55.28
64388;BME280;50709;52.648;4.764;2023-12-22T06:19:27;100246.00;;;16.71;54.74
64388;BME280;50709;52.648;4.764;2023-12-22T06:21:55;100243.50;;;16.39;55.77
64388;BME280;50709;52.648;4.764;2023-12-22T06:24:22;100242.16;;;16.26;57.04
64388;BME280;50709;52.648;4.764;2023-12-22T06:26:48;100231.34;;;16.07;56.93
64388;BME280;50709;52.648;4.764;2023-12-22T06:29:13;100242.66;;;16.10;56.91
64388;BME280;50709;52.648;4.764;2023-12-22T06:31:39;100250.84;;;16.01;57.22
64388;BME280;50709;52.648;4.764;2023-12-22T06:34:04;100240.16;;;15.74;57.68
64388;BME280;50709;52.648;4.764;2023-12-22T06:36:30;100214.19;;;15.62;56.80
64388;BME280;50709;52.648;4.764;2023-12-22T06:38:55;100231.00;;;15.58;58.59
64388;BME280;50709;52.648;4.764;2023-12-22T06:43:49;100232.38;;;15.71;58.40
64388;BME280;50709;52.648;4.764;2023-12-22T06:46:19;100248.13;;;15.41;58.92
64388;BME280;50709;52.648;4.764;2023-12-22T06:48:45;100232.97;;;15.50;58.09
64388;BME280;50709;52.648;4.764;2023-12-22T06:51:20;100246.09;;;15.51;58.64
64388;BME280;50709;52.648;4.764;2023-12-22T06:53:47;100248.66;;;15.21;59.51
64388;BME280;50709;52.648;4.764;2023-12-22T06:56:20;100245.38;;;15.11;59.28
64388;BME280;50709;52.648;4.764;2023-12-22T06:58:48;100212.31;;;15.03;59.13
64388;BME280;50709;52.648;4.764;2023-12-22T07:01:32;100251.72;;;15.04;59.59
64388;BME280;50709;52.648;4.764;2023-12-22T07:03:58;100218.97;;;14.82;60.08
64388;BME280;50709;52.648;4.764;2023-12-22T07:06:26;100226.09;;;14.76;59.09
64388;BME280;50709;52.648;4.764;2023-12-22T07:11:36;100249.22;;;15.00;59.86
64388;BME280;50709;52.648;4.764;2023-12-22T07:14:02;100257.00;;;15.03;60.62
64388;BME280;50709;52.648;4.764;2023-12-22T07:16:27;100272.09;;;14.96;60.34
64388;BME280;50709;52.648;4.764;2023-12-22T07:18:53;100262.59;;;14.90;61.19
64388;BME280;50709;52.648;4.764;2023-12-22T07:21:18;100252.44;;;14.75;61.25
64388;BME280;50709;52.648;4.764;2023-12-22T07:23:44;100260.09;;;14.84;61.30
64388;BME280;50709;52.648;4.764;2023-12-22T07:26:10;100261.84;;;14.85;61.47
64388;BME280;50709;52.648;4.764;2023-12-22T07:28:35;100259.34;;;14.80;61.43
64388;BME280;50709;52.648;4.764;2023-12-22T07:31:01;100244.56;;;14.75;61.43
64388;BME280;50709;52.648;4.764;2023-12-22T07:33:26;100251.41;;;14.82;61.70
64388;BME280;50709;52.648;4.764;2023-12-22T07:35:51;100231.53;;;14.70;61.66
64388;BME280;50709;52.648;4.764;2023-12-22T07:38:17;100236.06;;;14.63;61.22
64388;BME280;50709;52.648;4.764;2023-12-22T07:40:42;100266.41;;;14.77;61.42
64388;BME280;50709;52.648;4.764;2023-12-22T07:43:08;100267.16;;;14.44;62.56
64388;BME280;50709;52.648;4.764;2023-12-22T07:45:34;100246.84;;;14.51;62.82
64388;BME280;50709;52.648;4.764;2023-12-22T07:47:59;100256.41;;;14.55;62.07
64388;BME280;50709;52.648;4.764;2023-12-22T07:50:25;100257.78;;;14.72;61.75
64388;BME280;50709;52.648;4.764;2023-12-22T07:52:50;100262.31;;;14.65;61.37
64388;BME280;50709;52.648;4.764;2023-12-22T07:55:15;100252.66;;;14.66;62.58
64388;BME280;50709;52.648;4.764;2023-12-22T07:57:41;100245.13;;;14.50;62.43
64388;BME280;50709;52.648;4.764;2023-12-22T08:00:07;100251.91;;;14.60;62.44
64388;BME280;50709;52.648;4.764;2023-12-22T08:02:34;100232.91;;;14.47;62.44
64388;BME280;50709;52.648;4.764;2023-12-22T08:05:00;100246.06;;;14.47;63.12
64388;BME280;50709;52.648;4.764;2023-12-22T08:07:25;100247.66;;;14.53;63.20
64388;BME280;50709;52.648;4.764;2023-12-22T08:09:50;100246.84;;;14.51;63.51
64388;BME280;50709;52.648;4.764;2023-12-22T08:12:16;100236.56;;;14.42;63.05
64388;BME280;50709;52.648;4.764;2023-12-22T08:14:41;100227.84;;;14.40;62.89
64388;BME280;50709;52.648;4.764;2023-12-22T08:17:07;100228.22;;;14.24;63.42
64388;BME280;50709;52.648;4.764;2023-12-22T08:19:32;100222.53;;;14.41;63.90
64388;BME280;50709;52.648;4.764;2023-12-22T08:21:58;100216.66;;;14.32;64.61
64388;BME280;50709;52.648;4.764;2023-12-22T08:24:23;100209.41;;;14.43;63.69
64388;BME280;50709;52.648;4.764;2023-12-22T08:26:49;100216.94;;;14.57;63.80
64388;BME280;50709;52.648;4.764;2023-12-22T08:29:15;100217.91;;;14.53;63.90
64388;BME280;50709;52.648;4.764;2023-12-22T08:31:46;100214.53;;;14.47;63.59
64388;BME280;50709;52.648;4.764;2023-12-22T08:34:12;100217.06;;;14.51;63.80
64388;BME280;50709;52.648;4.764;2023-12-22T08:36:37;100207.97;;;14.67;63.12
64388;BME280;50709;52.648;4.764;2023-12-22T08:39:03;100210.78;;;14.58;63.89
64388;BME280;50709;52.648;4.764;2023-12-22T08:41:31;100223.13;;;14.54;63.40
64388;BME280;50709;52.648;4.764;2023-12-22T08:44:02;100219.78;;;14.47;63.50
64388;BME280;50709;52.648;4.764;2023-12-22T08:46:27;100228.22;;;14.62;63.00
64388;BME280;50709;52.648;4.764;2023-12-22T08:48:52;100204.16;;;14.41;63.52
64388;BME280;50709;52.648;4.764;2023-12-22T08:51:18;100218.84;;;14.50;63.55
64388;BME280;50709;52.648;4.764;2023-12-22T08:53:43;100234.50;;;14.55;64.00
64388;BME280;50709;52.648;4.764;2023-12-22T08:56:08;100232.09;;;14.45;63.51
64388;BME280;50709;52.648;4.764;2023-12-22T08:58:35;100237.53;;;14.38;64.20
64388;BME280;50709;52.648;4.764;2023-12-22T09:01:00;100229.13;;;14.59;63.46
64388;BME280;50709;52.648;4.764;2023-12-22T09:03:26;100246.66;;;14.59;63.91
64388;BME280;50709;52.648;4.764;2023-12-22T09:05:52;100227.31;;;14.61;63.77
64388;BME280;50709;52.648;4.764;2023-12-22T09:08:18;100236.38;;;14.50;63.67
64388;BME280;50709;52.648;4.764;2023-12-22T09:10:43;100231.09;;;14.51;63.66
64388;BME280;50709;52.648;4.764;2023-12-22T09:13:10;100230.75;;;14.67;63.60
64388;BME280;50709;52.648;4.764;2023-12-22T09:15:36;100228.28;;;14.57;63.73
64388;BME280;50709;52.648;4.764;2023-12-22T09:18:02;100229.06;;;14.62;64.08
64388;BME280;50709;52.648;4.764;2023-12-22T09:20:28;100224.91;;;14.54;64.28
64388;BME280;50709;52.648;4.764;2023-12-22T09:22:55;100222.16;;;14.58;64.43
64388;BME280;50709;52.648;4.764;2023-12-22T09:25:21;100231.25;;;14.43;64.20
64388;BME280;50709;52.648;4.764;2023-12-22T09:27:47;100236.31;;;14.53;64.37
64388;BME280;50709;52.648;4.764;2023-12-22T09:30:13;100234.53;;;14.53;64.29
64388;BME280;50709;52.648;4.764;2023-12-22T09:32:38;100237.09;;;14.56;64.16
64388;BME280;50709;52.648;4.764;2023-12-22T09:35:04;100237.84;;;14.63;64.05
64388;BME280;50709;52.648;4.764;2023-12-22T09:37:29;100246.72;;;14.56;64.12
64388;BME280;50709;52.648;4.764;2023-12-22T09:39:54;100240.03;;;14.42;64.75
64388;BME280;50709;52.648;4.764;2023-12-22T09:42:21;100238.25;;;14.44;64.43
64388;BME280;50709;52.648;4.764;2023-12-22T09:44:48;100254.81;;;14.46;64.40
64388;BME280;50709;52.648;4.764;2023-12-22T09:47:15;100249.66;;;14.43;64.60
64388;BME280;50709;52.648;4.764;2023-12-22T09:49:43;100255.03;;;14.37;65.08
64388;BME280;50709;52.648;4.764;2023-12-22T09:52:10;100259.09;;;14.52;64.32
64388;BME280;50709;52.648;4.764;2023-12-22T09:54:37;100255.50;;;14.55;63.96
64388;BME280;50709;52.648;4.764;2023-12-22T09:57:03;100260.53;;;14.66;64.31
64388;BME280;50709;52.648;4.764;2023-12-22T09:59:30;100267.53;;;14.67;64.23
64388;BME280;50709;52.648;4.764;2023-12-22T10:01:57;100265.84;;;14.62;64.24
64388;BME280;50709;52.648;4.764;2023-12-22T10:04:24;100262.91;;;14.76;63.86
64388;BME280;50709;52.648;4.764;2023-12-22T10:06:50;100255.50;;;14.56;63.92
64388;BME280;50709;52.648;4.764;2023-12-22T10:09:16;100251.84;;;14.63;64.57
64388;BME280;50709;52.648;4.764;2023-12-22T10:11:49;100262.22;;;14.68;64.20
64388;BME280;50709;52.648;4.764;2023-12-22T10:14:18;100266.72;;;14.65;64.20
64388;BME280;50709;52.648;4.764;2023-12-22T10:16:48;100267.63;;;14.62;64.31
64388;BME280;50709;52.648;4.764;2023-12-22T10:19:15;100273.25;;;14.84;63.58
64388;BME280;50709;52.648;4.764;2023-12-22T10:21:40;100253.84;;;14.51;63.69
64388;BME280;50709;52.648;4.764;2023-12-22T10:24:05;100279.13;;;14.58;64.27
64388;BME280;50709;52.648;4.764;2023-12-22T10:26:31;100267.53;;;14.67;64.62
64388;BME280;50709;52.648;4.764;2023-12-22T10:28:56;100278.44;;;14.50;64.05
64388;BME280;50709;52.648;4.764;2023-12-22T10:31:22;100268.72;;;14.52;64.21
64388;BME280;50709;52.648;4.764;2023-12-22T10:33:47;100252.84;;;14.58;64.52
64388;BME280;50709;52.648;4.764;2023-12-22T10:36:13;100241.44;;;14.57;64.25
64388;BME280;50709;52.648;4.764;2023-12-22T10:38:39;100265.84;;;14.62;64.39
64388;BME280;50709;52.648;4.764;2023-12-22T10:41:06;100271.50;;;14.85;63.93
64388;BME280;50709;52.648;4.764;2023-12-22T10:43:39;100268.34;;;14.70;64.40
64388;BME280;50709;52.648;4.764;2023-12-22T10:46:06;100254.22;;;14.74;63.95
64388;BME280;50709;52.648;4.764;2023-12-22T10:48:33;100249.09;;;14.68;64.10
64388;BME280;50709;52.648;4.764;2023-12-22T10:50:58;100267.66;;;14.60;63.83
64388;BME280;50709;52.648;4.764;2023-12-22T10:53:24;100264.09;;;14.65;64.30
64388;BME280;50709;52.648;4.764;2023-12-22T10:55:49;100246.19;;;14.80;64.04
64388;BME280;50709;52.648;4.764;2023-12-22T10:58:16;100244.75;;;14.67;64.41
64388;BME280;50709;52.648;4.764;2023-12-22T11:00:45;100236.47;;;14.45;64.49
64388;BME280;50709;52.648;4.764;2023-12-22T11:03:16;100240.34;;;14.68;64.04
64388;BME280;50709;52.648;4.764;2023-12-22T11:05:45;100215.28;;;14.53;64.33
64388;BME280;50709;52.648;4.764;2023-12-22T11:08:11;100253.63;;;14.60;64.50
64388;BME280;50709;52.648;4.764;2023-12-22T11:10:41;100241.47;;;14.56;64.75
64388;BME280;50709;52.648;4.764;2023-12-22T11:13:08;100242.25;;;14.61;64.58
64388;BME280;50709;52.648;4.764;2023-12-22T11:15:36;100239.56;;;14.64;64.56
64388;BME280;50709;52.648;4.764;2023-12-22T11:18:02;100242.19;;;14.64;64.39
64388;BME280;50709;52.648;4.764;2023-12-22T11:20:29;100232.81;;;14.52;64.97
64388;BME280;50709;52.648;4.764;2023-12-22T11:22:57;100239.34;;;14.73;63.94
64388;BME280;50709;52.648;4.764;2023-12-22T11:25:25;100230.03;;;14.58;64.83
64388;BME280;50709;52.648;4.764;2023-12-22T11:27:51;100220.63;;;14.50;64.82
64388;BME280;50709;52.648;4.764;2023-12-22T11:30:18;100224.50;;;14.71;64.04
64388;BME280;50709;52.648;4.764;2023-12-22T11:32:45;100208.94;;;14.61;63.80
64388;BME280;50709;52.648;4.764;2023-12-22T11:35:12;100215.06;;;14.62;64.37
64388;BME280;50709;52.648;4.764;2023-12-22T11:37:39;100210.59;;;14.67;64.35
64388;BME280;50709;52.648;4.764;2023-12-22T11:40:05;100217.72;;;14.60;63.79
64388;BME280;50709;52.648;4.764;2023-12-22T11:42:34;100202.78;;;14.62;64.73
64388;BME280;50709;52.648;4.764;2023-12-22T11:45:02;100220.75;;;14.81;64.19
64388;BME280;50709;52.648;4.764;2023-12-22T11:47:28;100207.63;;;14.81;63.81
64388;BME280;50709;52.648;4.764;2023-12-22T11:49:55;100206.16;;;14.69;64.56
64388;BME280;50709;52.648;4.764;2023-12-22T11:52:27;100197.50;;;14.64;64.33
64388;BME280;50709;52.648;4.764;2023-12-22T11:54:56;100200.28;;;14.58;64.75
64388;BME280;50709;52.648;4.764;2023-12-22T11:59:59;100194.66;;;14.73;64.26
64388;BME280;50709;52.648;4.764;2023-12-22T12:02:26;100192.19;;;14.67;63.51
64388;BME280;50709;52.648;4.764;2023-12-22T12:04:52;100192.03;;;14.73;64.10
64388;BME280;50709;52.648;4.764;2023-12-22T12:07:41;100206.72;;;14.82;64.51
64388;BME280;50709;52.648;4.764;2023-12-22T12:10:10;100198.25;;;14.69;64.23
64388;BME280;50709;52.648;4.764;2023-12-22T12:12:35;100190.50;;;14.65;64.75
64388;BME280;50709;52.648;4.764;2023-12-22T12:15:13;100182.69;;;14.60;64.77
64388;BME280;50709;52.648;4.764;2023-12-22T12:17:42;100169.19;;;14.39;65.36
64388;BME280;50709;52.648;4.764;2023-12-22T12:20:09;100191.31;;;14.67;64.95
64388;BME280;50709;52.648;4.764;2023-12-22T12:22:36;100181.69;;;14.66;65.24
64388;BME280;50709;52.648;4.764;2023-12-22T12:25:09;100171.84;;;14.75;63.97
64388;BME280;50709;52.648;4.764;2023-12-22T12:27:36;100168.50;;;14.69;64.41
64388;BME280;50709;52.648;4.764;2023-12-22T12:30:13;100175.59;;;14.65;64.71
64388;BME280;50709;52.648;4.764;2023-12-22T12:32:41;100186.03;;;14.68;64.68
64388;BME280;50709;52.648;4.764;2023-12-22T12:35:08;100184.56;;;14.55;64.69
64388;BME280;50709;52.648;4.764;2023-12-22T12:37:33;100182.41;;;14.72;64.72
64388;BME280;50709;52.648;4.764;2023-12-22T12:40:00;100150.31;;;14.59;64.66
64388;BME280;50709;52.648;4.764;2023-12-22T12:42:29;100180.34;;;14.85;64.29
64388;BME280;50709;52.648;4.764;2023-12-22T12:44:56;100173.03;;;14.62;64.93
64388;BME280;50709;52.648;4.764;2023-12-22T12:47:21;100165.47;;;14.84;64.40
64388;BME280;50709;52.648;4.764;2023-12-22T12:49:46;100174.75;;;14.61;64.74
64388;BME280;50709;52.648;4.764;2023-12-22T12:52:13;100168.47;;;14.70;65.09
64388;BME280;50709;52.648;4.764;2023-12-22T12:54:39;100185.72;;;14.80;64.57